KCNU

Chanute Martin Johnson Airport

Chanute, Kansas, USA
KCNU 260520Z 2606/2706 35008KT 5SM BR OVC005 FM260900 35004KT 3SM BR BKN003 TEMPO 2610/2614 1/2SM FG VV002 FM261400 33005KT P6SM SCT090 FM262100 31008KT P6SM BKN090
Issued Valid From Valid To
Apr-26 @ 05:20 UTC
(42 minutes ago)
Apr-26 @ 06:00 UTC
(2 minutes ago)
Apr-27 @ 06:00 UTC
(in 24 hours)
Apr-26 @ 06:00 to Apr-26 @ 09:00
KCNU 260520Z 2606/2706 35008KT 5SM BR OVC005
Wind Visibility Clouds Conditions
350° at 8 knots 5 miles
  • Overcast at 500' AGL
  • Mist
From Apr-26 @ 09:00 to Apr-26 @ 14:00
FM260900 35004KT 3SM BR BKN003
Wind Visibility Clouds Conditions
350° at 4 knots 3 miles
  • Broken at 300' AGL
  • Mist
Temporary Apr-26 @ 10:00 to Apr-26 @ 14:00
TEMPO 2610/2614 1/2SM FG VV002
Visibility Clouds Conditions
1/2 miles
  • Vertical visibility at 200' AGL
  • Fog
From Apr-26 @ 14:00 to Apr-26 @ 21:00
FM261400 33005KT P6SM SCT090
Wind Visibility Clouds
330° at 5 knots Greater than 6 miles
  • Scattered at 9,000' AGL
From Apr-26 @ 21:00 to Apr-27 @ 06:00
FM262100 31008KT P6SM BKN090
Wind Visibility Clouds
310° at 8 knots Greater than 6 miles
  • Broken at 9,000' AGL
KCNU 260520Z 2606/2706 35008KT 5SM BR OVC005 FM260900 35004KT 3SM BR BKN003 TEMPO 2610/2614 1/2SM FG VV002 FM261400 33005KT P6SM SCT090 FM262100 31008KT P6SM BKN090
Issued Apr-26 @ 05:20 UTC
(42 minutes ago)
Valid From Apr-26 @ 06:00 UTC
(2 minutes ago)
Valid To Apr-27 @ 06:00 UTC
(in 24 hours)
Apr-26 @ 06:00 - Apr-26 @ 09:00
Wind Visibility
350° at 8 knots 5 miles
Clouds
  • Overcast at 500' AGL
Conditions
  • Mist
From Apr-26 @ 09:00 - Apr-26 @ 14:00
Wind Visibility
350° at 4 knots 3 miles
Clouds
  • Broken at 300' AGL
Conditions
  • Mist
Temporary Apr-26 @ 10:00 - Apr-26 @ 14:00
Clouds
  • Vertical visibility at 200' AGL
Conditions
  • Fog
From Apr-26 @ 14:00 - Apr-26 @ 21:00
Wind Visibility
330° at 5 knots Greater than 6 miles
Clouds
  • Scattered at 9,000' AGL
From Apr-26 @ 21:00 - Apr-27 @ 06:00
Wind Visibility
310° at 8 knots Greater than 6 miles
Clouds
  • Broken at 9,000' AGL